Morrison, Oklahoma
Current Conditions -  °F | °C
As of 1:53 PM on Thursday 23 Oct 2014 (Local Time) from KSWO Reporting Station
Overcast Overcast  
Wind Chill: 72°   Ceiling: 5000
Heat Index: 72°   Visibility: 10mi
Dew Point: 58°   Wind: 7mph
Humidity: 61%   Direction: 180°S
Pressure: 30.08"   Gusts: NA
Location:  36.3°N, 97.01°W
Report Text: KSWO 231853Z 18006KT 10SM OVC050 22/14 A3008 RMK AO2 SLP177 T02220144
Loading
Personal Weather Stations






























Interactive Weather Map
Tropical Storm Tracking
New forecast layout! Learn more

10-Day Weather Forecast

Advertisements
Track Severe Weather on mobile